• Join FlightAware (Why Join?)
  • Login
  • US Flag 
01:39PM EDT


 

Airport Tracker/Info


-or-


 

Live Flight TrackerFlight Track Log ✈ FLG4222 ✈ 04-May-2014 ✈ KFSD - KMSP

Flight Track Log - Related Links

Times and Time Zones

All times are in EDT time to prevent confusion due to time zone crossing. See the FLG4222 flight status page for this flight to view local times or setup timezone preferences in your user account.

Time Position Orientation Groundspeed Altitude Reporting Facility
EDT Latitude Longitude Course Direction KTS MPH feet Rate Location/Type
12:20PM 43.6003 -96.7294 53° Northeast 149 171 2,500  Level Minneapolis Center
12:21PM 43.6339 -96.6867 43° Northeast 162 186 4,200 1,740 Climbing Minneapolis Center
12:22PM 43.6742 -96.6083 55° Northeast 218 251 6,100 2,160 Climbing Minneapolis Center
12:23PM 43.7222 -96.5192 53° Northeast 260 299 8,700 2,160 Climbing Minneapolis Center
12:24PM 43.7736 -96.4244 53° Northeast 287 330 10,600 2,100 Climbing Minneapolis Center
12:25PM 43.8461 -96.2914 53° Northeast 336 387 13,100 2,340 Climbing Minneapolis Center
12:26PM 43.8485 -96.2418 53° Northeast  Level FlightAware Approximate
12:26PM 43.9103 -96.1739 53° Northeast 376 433 15,500  Level Minneapolis Center
12:27PM 43.9772 -96.0500 53° Northeast 401 461 17,000 660 Climbing Minneapolis Center
12:28PM 44.0500 -95.9147 53° Northeast 435 501 16,900  Descending Minneapolis Center
12:30PM 44.1247 -95.7778 53° Northeast 447 514 17,000  Climbing Minneapolis Center
12:31PM 44.2269 -95.6386 44° Northeast 446 513 17,000  Level Minneapolis Center
12:32PM 44.3275 -95.5575 30° Northeast 428 493 17,000  Level Minneapolis Center
12:33PM 44.4306 -95.4769 29° Northeast 427 491 17,000  Level Minneapolis Center
12:34PM 44.5258 -95.4050 28° Northeast 405 466 17,000  Level Minneapolis Center
12:35PM 44.6006 -95.3003 45° Northeast 402 463 17,000  Level Minneapolis Center
12:36PM 44.6117 -95.1378 84° East 415 478 17,000  Level Minneapolis Center
12:37PM 44.6197 -94.9439 87° East 416 479 17,000 -300 Level Minneapolis Center
12:38PM 44.6278 -94.7836 86° East 415 478 16,500 -960 Descending Minneapolis Center
12:39PM 44.6342 -94.6253 87° East 414 476 15,100 -1,440 Descending Minneapolis Center
12:40PM 44.6392 -94.4617 87° East 389 448 13,600 -1,440 Descending Minneapolis Center
12:41PM 44.6556 -94.3158 81° East 379 436 12,200 -1,320 Descending Minneapolis Center
12:42PM 44.6881 -94.1783 72° East 370 426 11,000 -600 Descending Minneapolis Center
12:43PM 44.7183 -94.0419 73° East 369 425 11,000  Level Minneapolis Center
12:44PM 44.7486 -93.9069 72° East 366 421 11,000  Level Minneapolis Center
12:45PM 44.7792 -93.7708 72° East 366 421 11,000  Level Minneapolis Center
12:46PM 44.8094 -93.6347 73° East 365 420 11,000 -480 Level Minneapolis Center
12:47PM 44.8428 -93.4817 73° East 335 386 10,100 -1,260 Descending Minneapolis Center
12:48PM 44.8472 -93.3658 87° East 310 357 8,500 -1,020 Descending Minneapolis Center
12:49PM 44.8058 -93.2722 122° Southeast 273 314 8,000 -1,080 Descending Minneapolis Center
12:50PM 44.7703 -93.1917 122° Southeast 235 270 6,400 -1,020 Descending Minneapolis Center
12:51PM 44.7378 -93.1186 122° Southeast 220 253 6,000 -300 Descending Minneapolis Center
12:52PM 44.7086 -93.0467 120° Southeast 217 250 5,900 -780 Descending Minneapolis Center
12:53PM 44.7489 -93.0269 19° North 190 219 4,500 -1,200 Descending Minneapolis Center
12:54PM 44.7906 -93.0594 331° Northwest 174 200 3,500 -960 Descending Minneapolis Center
12:55PM 44.8300 -93.1006 324° Northwest 144 166 2,600 -840 Descending Minneapolis Center
12:56PM 44.8506 -93.1481 301° West 144 166 1,800 -780 Descending Minneapolis Center
12:57PM 44.8725 -93.1992 301° West 144 166 1,000 -780 Descending Minneapolis Center
12:59PM 44.8667 -93.2167 332° Northwest  Level FlightAware Approximate